Latest  Newer  Older  Last 2 hours slideshow  Last 24 hours slideshow  Refresh every 5 minutes 
Current image  Latest image  Rain/snow radar  Cloud coverage sat images 

All time is UTC (add 2 hours to UTC in wintertime, 3 hours to UTC in DST for Latvia local time)

2020/09/29 03:20 EVRA 290320Z 00000KT 9999 2500 MIFG NSC 10/10 Q1018 NOSIG
2020/09/29 03:20 EVLA 290320Z AUTO 07003KT 1000 R24/1200D R06/P2000N FG FEW240/// 05/05 Q1017
2020/09/29 03:20 EVVA 290320Z AUTO VRB01KT 5000 BR OVC032 09/08 Q1018
2020/09/29 03:20 EYKA 290320Z VRB02KT 9999 3900E BR FEW002 04/03 Q1018
2020/09/29 03:20 EYPA 290320Z VRB01KT CAVOK 06/05 Q1018
2020/09/29 03:20 EYSA 290320Z 14003KT 8000 3300SE MIFG NSC 05/05 Q1019 BLU NOSIG
2020/09/29 03:20 EYVI 290320Z 10005KT CAVOK 07/06 Q1018 NOSIG
2020/09/29 03:20 EEKA 290320Z 22003KT 160V250 6000 +DZ FEW002 BKN012 13/12 Q1017
2020/09/29 03:30 EEKE 290330Z AUTO 21006KT 9999NDV FEW006 SCT035 13/12 Q1017

2020/09/29 03:20 EETN 290320Z 12004KT 9999 OVC019 11/10 Q1018
2020/09/29 03:20 EETU 290320Z AUTO 12002KT 9999 OVC003/// 12/11 Q1018
   RIGA AIRPORT     EVRA               56 55N  023 58E   10   X     T          6 LV
   LIEPAJA INTL     EVLA        26406  56 31N  021 06E    4   X                8 LV
   VENTPILS         EVVA               57 21N  021 33E    6   X                8 LV
   KAUNAS           EYKA               54 54N  023 55E   77   X     T          6 LT
   PALANGA INTL     EYPA               55 55N  021 03E   10   X                6 LT
   SIAULIAI INTL    EYSA               55 54N  023 24E  135   X     T          6 LT
   VILNIUS INTL     EYVI        26730  54 38N  025 17E  197   X     T          6 LT
   KARDLA           EEKA        26116  58 59N  022 50E    4   X                8 EE
   KURESSAARE       EEKE               58 14N  022 31E    4   X                8 EE
   PARNU            EEPU               58 25N  024 28E   14   X                8 EE
   TALLINN          EETN        26038  59 24N  024 49E   40   X     T          8 EE
   TARTU            EETU               58 19N  026 41E   67   X                8 EE